Villalba, PR (00766)

7:35 AM AST on July 26, 2014 (GMT -0400)
ALBERTO-RURAL (IPONCEPO3) Elev 571 ft | 18.07 °N, 66.60 °W | Change Station

Current weather conditions updated 2 seconds ago

Partly Cloudy
Partly Cloudy
84.2 °F
Feels Like 83 °F
N
0.0
Wind Variable Wind from South
Gusts 0.0 mph

Today is forecast to be Much Cooler than yesterday.

Today
High -- | Low -- °F
--% Chance of Precip.
Yesterday
High -- | Low -- °F
Precip. -- in
6:02 AM 7:02 PM
Waning Crescent, 0% visible
Pressure 30.00 in
Visibility 10.0 miles
Clouds Few 3000 ft
Heat Index 83 °F
Dew Point 57 °F
Humidity 39%
Rainfall 0.00 in
Snow Depth Not available.
UV 0 out of 12
Pollen Not available.
Air Quality Not available.
Flu Activity Not available.
METAR TJPS 261050Z 06006KT 10SM FEW030 27/22 A3000 RMK HZ ALQDS

More Conditions Fewer Conditions

Pressure 30.00 in
Visibility 10.0 miles
Clouds Few 3000 ft
Heat Index 83 °F
Dew Point 57 °F
Humidity 39%
Rainfall 0.00 in
Snow Depth Not available.
UV 0 out of 12
Pollen Not available.
Air Quality Not available.
Flu Activity Not available.
METAR TJPS 261050Z 06006KT 10SM FEW030 27/22 A3000 RMK HZ ALQDS

More Conditions Fewer Conditions

10-Day Weather Forecast

Almanac

Astronomy

Jul. 26, 2014 Rise Set
Actual Time 6:02 AM AST 7:02 PM AST
Civil Twilight 5:38 AM AST 7:25 PM AST
Nautical Twilight 5:11 AM AST 7:53 PM AST
Astronomical Twilight 4:42 AM AST 8:21 PM AST
Moon 5:42 AM AST 6:46 PM AST
Length of Visible Light 13h 47m
Length of Day
13h 00m
Tomorrow will be 0m 42s shorter.
Waning Crescent, 0% of the Moon is Illuminated
Today
Waning Crescent
Jul 26
New
Aug 3
First Quarter
Aug 10
Full
Aug 17
Last Quarter

Community

WunderPhotos

Upload Photos

1,737,538 photos uploaded!

Nearby

Snow Depth

Station Depth Elevation
No new snow has been reported.

Earthquake Activity

City Distance Mag. Time & Date
No recent earthquake activity has been reported nearby.
Minimum magnitude displayed is 2.5.

Coastal Water Temperatures

Place Temperature
Magueyes Islands, PR 82.9 °F
Yabucoa Harbor, PR 82.9 °F

Nearby Weather Stations

Station Location Temp. Heat Index Dew Point Humidity Wind Precip. Elev Updated Type
ALBERTO-RURAL, Ponce 84.2 °F 83 °F 57 °F 39% South  at  0.0 mph 0.00 in / hr 571 ft 7:35 AM AST Rapid Fire
Bananera Costa Sur Inc., Santa Isabel 82.9 °F 88 °F 72 °F 70% WNW  at  5.6 mph 0.00 in / hr 56 ft 7:35 AM AST Rapid Fire
City, Ponce, PR 85.3 °F 91 °F 71 °F 63% SE  at  3.8 mph 0.00 in / hr 36 ft 7:35 AM AST Rapid Fire
MARITIME , Santa Isabel, PR - - - - East  at  22 mph 0.00 in / hr 0 ft 6:00 AM AST MADIS
Cayey, Cayey, PR 76.0 °F 76 °F 72 °F 88% East  at  9.0 mph 0.00 in / hr 1299 ft 7:34 AM AST Rapid Fire
Farallón, Cayey 76.0 °F 77 °F 70 °F 83% NE  at  5.0 mph 0.00 in / hr 1378 ft 7:34 AM AST Rapid Fire

Show More Stations Show Fewer Stations